createdAt,value
2022-10-07T00:03:45.717Z,17.39501953125
2022-10-07T00:13:45.659Z,17.7978515625
2022-10-07T00:23:45.549Z,18.10302734375
2022-10-07T00:33:45.484Z,18.505859375
2022-10-07T00:43:45.487Z,18.505859375
2022-10-07T00:53:45.322Z,19.39697265625
2022-10-07T01:03:45.238Z,18.896484375
2022-10-07T01:13:45.179Z,19.6044921875
2022-10-07T01:23:45.104Z,19.7021484375
2022-10-07T01:33:45.027Z,19.9951171875
2022-10-07T01:43:44.935Z,18.798828125
2022-10-07T01:53:44.862Z,19.7998046875
2022-10-07T02:13:44.748Z,19.10400390625
2022-10-07T02:23:44.628Z,19.20166015625
2022-10-07T02:33:44.575Z,17.8955078125
2022-10-07T02:43:44.509Z,17.29736328125
2022-10-07T02:53:44.441Z,17.39501953125
2022-10-07T03:03:44.386Z,16.796875
2022-10-07T03:13:44.445Z,16.29638671875
2022-10-07T03:23:44.218Z,15.7958984375
2022-10-07T03:33:44.140Z,15.19775390625
2022-10-07T03:43:44.058Z,14.09912109375
2022-10-07T03:53:44.008Z,13.3056640625
2022-10-07T04:03:43.933Z,12.80517578125
2022-10-07T04:13:43.969Z,12.59765625
2022-10-07T04:33:43.790Z,12.200927734375
2022-10-07T04:43:43.618Z,11.700439453125
2022-10-07T04:53:43.558Z,11.297607421875
2022-10-07T05:03:43.474Z,11.199951171875
2022-10-07T05:13:43.399Z,11.102294921875
2022-10-07T05:23:43.351Z,10.797119140625
2022-10-07T05:33:43.296Z,10.498046875
2022-10-07T05:43:43.293Z,10.400390625
2022-10-07T05:53:43.166Z,10.400390625
2022-10-07T06:03:43.092Z,9.89990234375
2022-10-07T06:13:42.983Z,9.600830078125
2022-10-07T06:23:43.018Z,9.3994140625
2022-10-07T06:33:42.872Z,9.002685546875
2022-10-07T06:43:42.799Z,8.599853515625
2022-10-07T06:53:42.725Z,8.30078125
2022-10-07T07:03:42.699Z,8.099365234375
2022-10-07T07:13:45.326Z,7.89794921875
2022-10-07T07:23:42.511Z,7.70263671875
2022-10-07T07:33:42.441Z,7.598876953125
2022-10-07T07:43:42.380Z,7.098388671875
2022-10-07T07:53:42.304Z,7.000732421875
2022-10-07T08:03:42.236Z,7.000732421875
2022-10-07T08:13:42.316Z,6.89697265625
2022-10-07T08:23:42.099Z,6.79931640625
2022-10-07T08:33:42.137Z,6.79931640625
2022-10-07T08:43:41.960Z,6.70166015625
2022-10-07T08:53:41.889Z,6.500244140625
2022-10-07T09:03:41.810Z,6.402587890625
2022-10-07T09:13:41.736Z,6.298828125
2022-10-07T09:23:41.706Z,6.402587890625
2022-10-07T09:33:41.622Z,6.298828125
2022-10-07T09:43:41.558Z,6.201171875
2022-10-07T09:53:41.485Z,6.1004638671875
2022-10-07T10:03:41.521Z,6.1004638671875
2022-10-07T10:13:41.319Z,5.999755859375
2022-10-07T10:23:41.336Z,5.8990478515625
2022-10-07T10:33:41.186Z,5.8013916015625
2022-10-07T10:43:41.125Z,5.8013916015625
2022-10-07T10:53:41.053Z,5.70068359375
2022-10-07T11:03:41.020Z,5.5999755859375
2022-10-07T11:13:40.920Z,5.5999755859375
2022-10-07T11:23:40.851Z,5.5999755859375
2022-10-07T11:33:40.887Z,5.499267578125
2022-10-07T11:43:40.709Z,5.5999755859375
2022-10-07T11:53:40.650Z,5.3985595703125
2022-10-07T12:03:40.643Z,5.3985595703125
2022-10-07T12:13:40.511Z,5.3985595703125
2022-10-07T12:23:40.444Z,5.5999755859375
2022-10-07T12:33:40.366Z,5.8013916015625
2022-10-07T12:43:40.313Z,6.1004638671875
2022-10-07T12:53:40.239Z,6.1004638671875
2022-10-07T13:03:40.180Z,6.201171875
2022-10-07T13:13:40.101Z,6.201171875
2022-10-07T13:23:40.033Z,6.201171875
2022-10-07T13:33:39.973Z,6.298828125
2022-10-07T13:43:39.916Z,6.201171875
2022-10-07T13:53:39.834Z,6.201171875
2022-10-07T14:03:39.745Z,5.999755859375
2022-10-07T14:13:39.691Z,5.8990478515625
2022-10-07T14:23:39.632Z,5.70068359375
2022-10-07T14:33:39.562Z,5.8013916015625
2022-10-07T14:43:39.495Z,5.499267578125
2022-10-07T14:53:39.442Z,5.499267578125
2022-10-07T15:03:39.429Z,5.5999755859375
2022-10-07T15:13:39.288Z,5.70068359375
2022-10-07T15:23:39.246Z,5.70068359375
2022-10-07T15:33:39.138Z,5.5999755859375
2022-10-07T15:43:39.095Z,5.3985595703125
2022-10-07T15:53:39.023Z,5.3985595703125
2022-10-07T16:03:38.968Z,5.3009033203125
2022-10-07T16:13:38.889Z,5.3009033203125
2022-10-07T16:23:38.909Z,5.3009033203125
2022-10-07T16:33:38.736Z,5.2001953125
2022-10-07T16:43:38.687Z,5.3009033203125
2022-10-07T16:53:38.609Z,5.0994873046875
2022-10-07T17:03:38.556Z,4.998779296875
2022-10-07T17:13:38.478Z,4.901123046875
2022-10-07T17:23:38.547Z,4.8004150390625
2022-10-07T17:33:38.344Z,4.69970703125
2022-10-07T17:43:38.286Z,4.5989990234375
2022-10-07T17:53:38.204Z,4.5013427734375
2022-10-07T18:03:38.139Z,4.5989990234375
2022-10-07T18:13:38.216Z,4.901123046875
2022-10-07T18:23:38.012Z,4.5989990234375
2022-10-07T18:33:37.952Z,4.8004150390625
2022-10-07T18:43:37.891Z,4.8004150390625
2022-10-07T18:53:37.820Z,4.8004150390625
2022-10-07T19:03:37.776Z,4.901123046875
2022-10-07T19:13:37.678Z,5.3009033203125
2022-10-07T19:23:37.606Z,5.3985595703125
2022-10-07T19:33:37.562Z,5.3009033203125
2022-10-07T19:43:37.479Z,5.499267578125
2022-10-07T19:53:37.413Z,5.499267578125
2022-10-07T20:03:37.338Z,5.8013916015625
2022-10-07T20:13:37.267Z,6.201171875
2022-10-07T20:23:37.218Z,6.597900390625
2022-10-07T20:33:37.145Z,6.89697265625
2022-10-07T20:43:37.053Z,7.89794921875
2022-10-07T20:53:37.009Z,9.100341796875
2022-10-07T21:03:36.923Z,9.99755859375
2022-10-07T21:13:36.866Z,10.797119140625
2022-10-07T21:23:36.804Z,11.700439453125
2022-10-07T21:33:36.729Z,12.40234375
2022-10-07T21:43:36.637Z,13.09814453125
2022-10-07T21:53:36.666Z,13.90380859375
2022-10-07T22:03:36.519Z,14.501953125
2022-10-07T22:13:36.435Z,14.599609375
2022-10-07T22:23:36.367Z,15.29541015625
2022-10-07T22:33:36.381Z,15.5029296875
2022-10-07T22:43:36.317Z,15.90576171875
2022-10-07T22:53:36.133Z,16.19873046875
2022-10-07T23:03:36.369Z,16.29638671875
2022-10-07T23:13:35.990Z,16.6015625
2022-10-07T23:23:35.905Z,16.69921875
2022-10-07T23:33:35.880Z,16.69921875
2022-10-07T23:43:35.766Z,17.10205078125
2022-10-07T23:53:35.673Z,17.19970703125
